createdAt,value
2023-08-11T00:02:54.547Z,1.88
2023-08-11T00:07:56.803Z,1.63
2023-08-11T00:12:58.712Z,1.60
2023-08-11T00:18:03.575Z,1.48
2023-08-11T00:23:05.776Z,1.90
2023-08-11T00:28:07.771Z,1.70
2023-08-11T00:33:09.793Z,1.85
2023-08-11T00:38:11.902Z,1.33
2023-08-11T00:43:14.022Z,2.40
2023-08-11T00:48:16.573Z,2.17
2023-08-11T00:53:18.691Z,1.80
2023-08-11T00:58:21.565Z,1.67
2023-08-11T01:03:23.568Z,1.80
2023-08-11T01:08:40.128Z,1.90
2023-08-11T01:13:54.012Z,2.00
2023-08-11T01:18:56.670Z,1.58
2023-08-11T01:23:59.468Z,2.30
2023-08-11T01:29:01.571Z,1.77
2023-08-11T01:34:04.634Z,2.00
2023-08-11T01:39:06.593Z,2.00
2023-08-11T01:44:09.607Z,2.10
2023-08-11T01:49:14.146Z,2.95
2023-08-11T01:54:16.390Z,2.10
2023-08-11T01:59:19.069Z,2.55
2023-08-11T02:04:21.080Z,2.35
2023-08-11T02:09:23.161Z,2.45
2023-08-11T02:14:25.117Z,2.67
2023-08-11T02:19:27.206Z,2.92
2023-08-11T02:24:29.415Z,2.72
2023-08-11T02:29:31.584Z,3.30
2023-08-11T02:34:33.826Z,3.17
2023-08-11T02:39:38.345Z,3.42
2023-08-11T02:44:42.430Z,3.47
2023-08-11T02:49:44.375Z,2.75
2023-08-11T02:54:46.411Z,3.70
2023-08-11T02:59:50.697Z,3.65
2023-08-11T03:04:52.720Z,3.22
2023-08-11T03:09:54.936Z,2.97
2023-08-11T03:14:57.210Z,3.20
2023-08-11T03:20:00.046Z,2.80
2023-08-11T03:25:02.141Z,3.00
2023-08-11T03:30:04.656Z,3.70
2023-08-11T03:35:07.724Z,4.00
2023-08-11T03:40:14.522Z,3.60
2023-08-11T03:45:16.975Z,2.88
2023-08-11T03:50:19.180Z,3.28
2023-08-11T03:55:21.292Z,2.97
2023-08-11T04:00:23.238Z,2.58
2023-08-11T04:05:25.754Z,2.97
2023-08-11T04:10:27.693Z,2.80
2023-08-11T04:15:29.740Z,2.63
2023-08-11T04:20:32.016Z,2.47
2023-08-11T04:25:34.148Z,2.70
2023-08-11T04:30:36.410Z,3.00
2023-08-11T04:35:39.573Z,2.65
2023-08-11T04:40:41.520Z,2.88
2023-08-11T04:45:43.506Z,2.67
2023-08-11T04:50:52.386Z,2.47
2023-08-11T04:55:54.315Z,2.20
2023-08-11T05:00:56.358Z,2.22
2023-08-11T05:05:58.370Z,2.45
2023-08-11T05:11:00.541Z,1.90
2023-08-11T05:16:02.677Z,2.17
2023-08-11T05:21:07.169Z,1.88
2023-08-11T05:26:09.098Z,1.80
2023-08-11T05:31:11.065Z,1.25
2023-08-11T05:36:13.205Z,1.90
2023-08-11T05:41:15.195Z,1.80
2023-08-11T05:46:17.173Z,1.90
2023-08-11T05:51:19.268Z,1.90
2023-08-11T05:56:21.201Z,1.42
2023-08-11T06:01:23.182Z,1.42
2023-08-11T06:06:26.586Z,1.50
2023-08-11T06:11:28.617Z,1.35
2023-08-11T06:16:30.834Z,1.27
2023-08-11T06:21:32.825Z,1.38
2023-08-11T06:26:34.854Z,0.98
2023-08-11T06:31:37.032Z,1.80
2023-08-11T06:36:39.324Z,1.70
2023-08-11T06:41:41.354Z,1.30
2023-08-11T06:46:43.918Z,2.00
2023-08-11T06:51:45.861Z,1.52
2023-08-11T06:56:47.791Z,1.45
2023-08-11T07:01:49.734Z,2.53
2023-08-11T07:06:51.782Z,1.50
2023-08-11T07:11:53.630Z,1.45
2023-08-11T07:16:55.596Z,1.45
2023-08-11T07:21:57.650Z,1.80
2023-08-11T07:26:59.660Z,1.20
2023-08-11T07:32:01.710Z,1.38
2023-08-11T07:37:04.265Z,1.50
2023-08-11T07:42:06.589Z,1.35
2023-08-11T07:47:08.794Z,1.23
2023-08-11T07:52:11.006Z,1.38
2023-08-11T07:57:13.160Z,1.48
2023-08-11T08:02:15.176Z,1.20
2023-08-11T08:07:17.276Z,1.45
2023-08-11T08:12:19.228Z,1.38
2023-08-11T08:17:21.498Z,1.80
2023-08-11T08:22:23.456Z,1.80
2023-08-11T08:27:25.807Z,1.45
2023-08-11T08:32:29.015Z,1.55
2023-08-11T08:37:33.028Z,1.73
2023-08-11T08:42:35.866Z,1.77
2023-08-11T08:47:39.538Z,1.45
2023-08-11T08:52:41.916Z,1.65
2023-08-11T08:57:44.496Z,1.85
2023-08-11T09:02:47.272Z,1.92
2023-08-11T09:07:49.313Z,2.13
2023-08-11T09:12:51.818Z,1.67
2023-08-11T09:17:53.970Z,1.55
2023-08-11T09:22:56.036Z,1.50
2023-08-11T09:27:59.384Z,1.55
2023-08-11T09:33:02.967Z,1.48
2023-08-11T09:38:05.681Z,1.30
2023-08-11T09:43:07.635Z,2.03
2023-08-11T09:48:10.008Z,1.23
2023-08-11T09:53:12.847Z,1.23
2023-08-11T09:58:15.720Z,0.98
2023-08-11T10:03:27.540Z,1.13
2023-08-11T10:08:31.001Z,1.30
2023-08-11T10:13:34.314Z,1.27
2023-08-11T10:18:37.523Z,1.00
2023-08-11T10:23:39.501Z,1.08
2023-08-11T10:28:42.238Z,1.33
2023-08-11T10:33:51.389Z,1.42
2023-08-11T10:39:06.363Z,1.02
2023-08-11T10:44:08.337Z,1.08
2023-08-11T10:49:10.592Z,1.20
2023-08-11T10:54:23.734Z,1.20
2023-08-11T10:59:28.431Z,1.33
2023-08-11T11:04:33.050Z,1.02
2023-08-11T11:09:35.242Z,1.60
2023-08-11T11:14:37.803Z,1.17
2023-08-11T11:19:40.017Z,1.10
2023-08-11T11:24:43.242Z,1.25
2023-08-11T11:29:45.428Z,1.42
2023-08-11T11:34:47.678Z,1.10
2023-08-11T11:39:49.797Z,1.33
2023-08-11T11:44:51.926Z,1.45
2023-08-11T11:50:00.645Z,1.20
2023-08-11T11:55:02.699Z,0.90
2023-08-11T12:00:09.062Z,1.20
2023-08-11T12:05:11.255Z,0.98
2023-08-11T12:10:13.136Z,1.38
2023-08-11T12:15:19.331Z,1.25
2023-08-11T12:20:23.532Z,1.50
2023-08-11T12:25:25.760Z,1.67
2023-08-11T12:30:27.730Z,1.25
2023-08-11T12:35:30.028Z,1.02
2023-08-11T12:40:32.015Z,1.20
2023-08-11T12:45:34.026Z,1.33
2023-08-11T12:50:37.593Z,1.10
2023-08-11T12:55:39.726Z,1.48
2023-08-11T13:00:41.744Z,1.60
2023-08-11T13:05:43.796Z,1.20
2023-08-11T13:10:45.874Z,1.10
2023-08-11T13:15:49.079Z,1.30
2023-08-11T13:20:52.385Z,1.00
2023-08-11T13:25:54.520Z,1.40
2023-08-11T13:30:56.706Z,1.30
2023-08-11T13:35:58.762Z,1.08
2023-08-11T13:41:01.700Z,1.85
2023-08-11T13:46:04.340Z,1.15
2023-08-11T13:51:06.696Z,1.33
2023-08-11T13:56:10.366Z,1.10
2023-08-11T14:01:12.276Z,1.10
2023-08-11T14:06:14.247Z,1.15
2023-08-11T14:11:17.091Z,1.13
2023-08-11T14:16:19.690Z,1.00
2023-08-11T14:21:21.823Z,1.00
2023-08-11T14:26:23.967Z,0.90
2023-08-11T14:31:25.887Z,1.20
2023-08-11T14:36:28.020Z,1.00
2023-08-11T14:41:30.008Z,1.15
2023-08-11T14:46:32.103Z,1.08
2023-08-11T14:51:34.025Z,1.05
2023-08-11T14:56:35.932Z,1.20
2023-08-11T15:01:37.796Z,0.93
2023-08-11T15:06:39.814Z,1.02
2023-08-11T15:11:42.041Z,1.20
2023-08-11T15:16:44.345Z,1.00
2023-08-11T15:21:46.615Z,1.20
2023-08-11T15:26:48.780Z,1.00
2023-08-11T15:31:53.544Z,1.20
2023-08-11T15:36:56.475Z,1.13
2023-08-11T15:41:58.512Z,1.42
2023-08-11T15:47:00.488Z,0.98
2023-08-11T15:52:02.366Z,1.10
2023-08-11T15:57:04.793Z,1.10
2023-08-11T16:02:10.591Z,0.82
2023-08-11T16:07:13.467Z,0.80
2023-08-11T16:12:15.545Z,1.20
2023-08-11T16:17:17.583Z,0.90
2023-08-11T16:22:19.598Z,0.98
2023-08-11T16:27:22.431Z,1.20
2023-08-11T16:32:24.440Z,1.00
2023-08-11T16:37:26.550Z,0.93
2023-08-11T16:42:28.617Z,0.80
2023-08-11T16:47:30.733Z,1.20
2023-08-11T16:52:32.816Z,0.90
2023-08-11T16:57:35.529Z,0.98
2023-08-11T17:02:37.547Z,0.80
2023-08-11T17:07:39.950Z,0.85
2023-08-11T17:12:42.256Z,1.25
2023-08-11T17:17:44.476Z,1.10
2023-08-11T17:22:46.628Z,0.98
2023-08-11T17:27:48.797Z,0.98
2023-08-11T17:32:50.771Z,1.00
2023-08-11T17:37:52.965Z,1.00
2023-08-11T17:42:55.003Z,0.88
2023-08-11T17:47:57.172Z,1.00
2023-08-11T17:52:59.446Z,1.05
2023-08-11T17:58:01.660Z,1.10
2023-08-11T18:03:03.839Z,1.70
2023-08-11T18:08:06.646Z,1.80
2023-08-11T18:13:08.767Z,2.20
2023-08-11T18:18:10.788Z,2.78
2023-08-11T18:23:15.902Z,2.72
2023-08-11T18:28:18.003Z,3.17
2023-08-11T18:33:19.929Z,2.40
2023-08-11T18:38:22.320Z,3.45
2023-08-11T18:43:24.422Z,2.88
2023-08-11T18:48:26.499Z,3.17
2023-08-11T18:53:29.047Z,3.08
2023-08-11T18:58:31.174Z,3.05
2023-08-11T19:03:34.023Z,2.33
2023-08-11T19:08:36.308Z,2.15
2023-08-11T19:13:38.361Z,3.10
2023-08-11T19:18:41.294Z,3.05
2023-08-11T19:23:43.497Z,4.03
2023-08-11T19:28:46.554Z,2.85
2023-08-11T19:33:48.543Z,3.45
2023-08-11T19:38:50.997Z,3.80
2023-08-11T19:43:53.034Z,3.08
2023-08-11T19:48:55.011Z,3.50
2023-08-11T19:53:57.102Z,2.88
2023-08-11T19:58:59.112Z,2.95
2023-08-11T20:04:01.182Z,2.95
2023-08-11T20:09:03.489Z,3.42
2023-08-11T20:14:05.672Z,2.30
2023-08-11T20:19:07.599Z,3.20
2023-08-11T20:24:09.937Z,3.25
2023-08-11T20:29:12.807Z,3.58
2023-08-11T20:34:14.977Z,3.45
2023-08-11T20:39:17.383Z,4.75
2023-08-11T20:44:19.213Z,3.33
2023-08-11T20:49:21.314Z,2.90
2023-08-11T20:54:24.312Z,2.60
2023-08-11T20:59:26.463Z,2.50
2023-08-11T21:04:28.940Z,3.30
2023-08-11T21:09:31.054Z,3.78
2023-08-11T21:14:33.122Z,3.60
2023-08-11T21:19:35.124Z,5.88
2023-08-11T21:24:36.975Z,3.83
2023-08-11T21:29:38.849Z,3.55
2023-08-11T21:34:40.773Z,3.38
2023-08-11T21:39:42.777Z,3.15
2023-08-11T21:44:44.812Z,2.83
2023-08-11T21:49:46.953Z,3.13
2023-08-11T21:54:48.980Z,2.80
2023-08-11T21:59:51.203Z,2.53
2023-08-11T22:04:53.193Z,1.88
2023-08-11T22:09:55.327Z,2.03
2023-08-11T22:14:57.248Z,2.35
2023-08-11T22:19:59.260Z,1.85
2023-08-11T22:25:03.498Z,2.50
2023-08-11T22:30:07.035Z,2.30
2023-08-11T22:35:09.389Z,2.15
2023-08-11T22:40:11.574Z,2.05
2023-08-11T22:45:13.548Z,1.67
2023-08-11T22:50:15.736Z,2.03
2023-08-11T22:55:17.878Z,1.42
2023-08-11T23:00:21.133Z,2.70
2023-08-11T23:05:23.283Z,1.30
2023-08-11T23:10:25.255Z,1.80
2023-08-11T23:15:28.311Z,1.70
2023-08-11T23:20:30.507Z,1.58
2023-08-11T23:25:32.304Z,1.67
2023-08-11T23:30:34.332Z,1.10
2023-08-11T23:35:40.040Z,1.88
2023-08-11T23:40:42.166Z,1.75
2023-08-11T23:45:44.220Z,1.40
2023-08-11T23:50:46.233Z,1.23
2023-08-11T23:55:48.262Z,1.23
